Time;durP1;ratioP1;P1;durP2;ratioP2;P2;SDS_P1;SDS_P2;PMS_P1;PMS_P2;Temp;Humidity;BMP_temperature;BMP_pressure;BME280_temperature;BME280_humidity;BME280_pressure;Samples;Min_cycle;Max_cycle;Signal;HPM_P1;HPM_P2
2022/09/24 00:00:31;;;;;;;;;;;14.40;78.80;;;;;;5009427;28;20377;-73
2022/09/24 00:02:57;;;;;;;;;;;14.40;78.90;;;;;;5001379;28;19929;-72
2022/09/24 00:05:24;;;;;;;;;;;14.40;79.10;;;;;;5004115;28;20420;-70
2022/09/24 00:07:50;;;;;;;;;;;14.30;79.10;;;;;;5008586;28;19936;-73
2022/09/24 00:10:17;;;;;;;;;;;14.30;79.90;;;;;;5013229;28;19929;-73
2022/09/24 00:12:45;;;;;;;;;;;14.30;79.10;;;;;;5005239;28;20192;-73
2022/09/24 00:15:11;;;;;;;;;;;14.30;79.20;;;;;;5007325;28;19929;-73
2022/09/24 00:17:38;;;;;;;;;;;14.30;79.30;;;;;;5007549;28;19929;-73
2022/09/24 00:20:05;;;;;;;;;;;14.30;79.30;;;;;;5008199;28;19929;-73
2022/09/24 00:22:32;;;;;;;;;;;14.30;79.50;;;;;;4994086;28;19926;-72
2022/09/24 00:27:42;;;;;;;;;;;14.30;79.50;;;;;;5003458;28;19927;-72
2022/09/24 00:30:11;;;;;;;;;;;14.20;79.50;;;;;;4998455;28;19936;-72
2022/09/24 00:32:37;;;;;;;;;;;14.20;79.50;;;;;;4997592;28;19934;-74
2022/09/24 00:35:05;;;;;;;;;;;14.20;79.60;;;;;;4999061;28;20016;-73
2022/09/24 00:37:32;;;;;;;;;;;14.20;79.60;;;;;;5007902;28;20020;-72
2022/09/24 00:39:58;;;;;;;;;;;14.20;79.70;;;;;;4994424;28;19926;-73
2022/09/24 00:42:25;;;;;;;;;;;14.20;79.80;;;;;;5008555;28;19951;-73
2022/09/24 00:44:53;;;;;;;;;;;14.20;79.90;;;;;;5004439;28;20389;-73
2022/09/24 00:47:26;;;;;;;;;;;14.20;80.00;;;;;;5000318;28;20032;-74
2022/09/24 00:49:55;;;;;;;;;;;14.20;80.00;;;;;;5002047;28;20024;-74
2022/09/24 00:52:22;;;;;;;;;;;14.10;80.00;;;;;;5008777;28;19937;-73
2022/09/24 00:54:49;;;;;;;;;;;14.20;80.10;;;;;;5007864;28;19929;-73
2022/09/24 00:57:16;;;;;;;;;;;14.10;80.20;;;;;;5004690;28;20032;-74
2022/09/24 00:59:43;;;;;;;;;;;14.10;80.20;;;;;;5007982;28;20008;-73
2022/09/24 01:02:10;;;;;;;;;;;14.20;80.30;;;;;;5006446;28;19936;-73
2022/09/24 01:04:37;;;;;;;;;;;14.10;80.40;;;;;;4998697;28;19940;-74
2022/09/24 01:07:04;;;;;;;;;;;14.10;80.40;;;;;;5010453;28;19936;-74
2022/09/24 01:09:31;;;;;;;;;;;14.10;81.20;;;;;;5006934;28;19929;-73
2022/09/24 01:12:01;;;;;;;;;;;14.10;80.50;;;;;;4999709;28;20456;-73
2022/09/24 01:14:39;;;;;;;;;;;14.10;80.60;;;;;;5009499;28;20356;-73
2022/09/24 01:17:11;;;;;;;;;;;14.00;80.60;;;;;;5006063;28;20436;-73
2022/09/24 01:19:52;;;;;;;;;;;14.10;80.70;;;;;;5000075;28;19936;-72
2022/09/24 01:22:26;;;;;;;;;;;14.00;80.70;;;;;;4995575;28;20450;-73
2022/09/24 01:24:59;;;;;;;;;;;14.00;80.80;;;;;;5001052;28;20379;-72
2022/09/24 01:27:32;;;;;;;;;;;14.00;80.80;;;;;;4999778;28;19929;-73
2022/09/24 01:30:04;;;;;;;;;;;14.00;80.80;;;;;;4998273;28;19946;-73
2022/09/24 01:32:36;;;;;;;;;;;14.00;80.90;;;;;;5001123;28;19930;-73
2022/09/24 01:35:05;;;;;;;;;;;14.00;80.80;;;;;;5004842;28;19933;-72
2022/09/24 01:37:34;;;;;;;;;;;14.00;80.90;;;;;;4995592;28;19925;-73
2022/09/24 01:40:01;;;;;;;;;;;14.00;81.00;;;;;;4995388;28;19934;-73
2022/09/24 01:42:29;;;;;;;;;;;14.00;81.00;;;;;;4998387;28;20386;-73
2022/09/24 01:44:56;;;;;;;;;;;14.00;81.10;;;;;;4999002;28;20040;-73
2022/09/24 01:47:29;;;;;;;;;;;13.90;81.00;;;;;;5006992;28;20404;-73
2022/09/24 01:49:55;;;;;;;;;;;13.90;81.10;;;;;;5003925;28;19940;-73
2022/09/24 01:52:25;;;;;;;;;;;13.90;81.20;;;;;;4999257;28;20437;-72
2022/09/24 01:54:52;;;;;;;;;;;13.80;81.30;;;;;;5006731;28;19930;-73
2022/09/24 01:57:21;;;;;;;;;;;13.90;81.50;;;;;;4997537;28;19933;-72
2022/09/24 01:59:49;;;;;;;;;;;13.90;81.50;;;;;;4988870;28;19937;-73
2022/09/24 02:02:19;;;;;;;;;;;13.80;81.60;;;;;;5004529;28;20031;-73
2022/09/24 02:04:51;;;;;;;;;;;13.80;81.80;;;;;;5003385;28;19936;-73
2022/09/24 02:07:22;;;;;;;;;;;13.80;81.80;;;;;;4989340;28;19933;-73
2022/09/24 02:09:49;;;;;;;;;;;13.80;81.80;;;;;;5008158;28;19929;-73
2022/09/24 02:12:18;;;;;;;;;;;13.80;81.80;;;;;;4996497;28;20028;-73
2022/09/24 02:14:48;;;;;;;;;;;13.80;81.70;;;;;;4997670;28;20655;-73
2022/09/24 02:17:15;;;;;;;;;;;13.80;81.80;;;;;;4997610;28;19929;-72
2022/09/24 02:19:42;;;;;;;;;;;13.70;81.80;;;;;;5005663;28;19932;-73
2022/09/24 02:22:11;;;;;;;;;;;13.80;82.00;;;;;;5004316;28;19983;-73
2022/09/24 02:24:43;;;;;;;;;;;13.70;82.00;;;;;;5003839;28;19933;-73
2022/09/24 02:27:10;;;;;;;;;;;13.70;82.00;;;;;;5006223;28;19937;-73
2022/09/24 02:29:36;;;;;;;;;;;13.80;82.20;;;;;;5000126;28;19934;-73
2022/09/24 02:32:04;;;;;;;;;;;13.70;82.20;;;;;;5005216;28;19936;-73
2022/09/24 02:34:31;;;;;;;;;;;13.70;82.10;;;;;;4996922;28;20389;-73
2022/09/24 02:36:59;;;;;;;;;;;13.70;82.20;;;;;;4999936;28;20705;-74
2022/09/24 02:39:27;;;;;;;;;;;13.70;82.30;;;;;;5007976;28;20309;-72
2022/09/24 02:41:54;;;;;;;;;;;13.60;82.40;;;;;;5001215;28;19933;-73
2022/09/24 02:44:21;;;;;;;;;;;13.60;82.60;;;;;;4998234;28;19929;-73
2022/09/24 02:46:49;;;;;;;;;;;13.60;82.50;;;;;;4993143;28;19929;-73
2022/09/24 02:49:15;;;;;;;;;;;13.60;82.60;;;;;;5001776;28;19976;-73
2022/09/24 02:51:42;;;;;;;;;;;13.60;82.60;;;;;;5006973;28;19992;-73
2022/09/24 02:54:09;;;;;;;;;;;13.60;82.60;;;;;;5004468;28;19937;-73
2022/09/24 02:56:37;;;;;;;;;;;13.60;82.60;;;;;;4997584;28;20380;-73
2022/09/24 02:59:04;;;;;;;;;;;13.60;82.70;;;;;;5002565;28;19929;-71
2022/09/24 03:01:32;;;;;;;;;;;13.60;82.60;;;;;;5001504;28;20393;-73
2022/09/24 03:03:58;;;;;;;;;;;13.60;82.70;;;;;;5000975;28;19940;-73
2022/09/24 03:06:25;;;;;;;;;;;13.50;82.70;;;;;;5002556;28;19976;-73
2022/09/24 03:08:53;;;;;;;;;;;13.50;82.70;;;;;;4996611;28;19937;-73
2022/09/24 03:11:20;;;;;;;;;;;13.50;82.70;;;;;;5002193;28;20446;-73
2022/09/24 03:13:49;;;;;;;;;;;13.50;82.70;;;;;;4987736;28;20416;-73
2022/09/24 03:16:16;;;;;;;;;;;13.50;82.80;;;;;;4996683;28;19929;-73
2022/09/24 03:18:42;;;;;;;;;;;13.40;82.80;;;;;;5007748;28;20435;-73
2022/09/24 03:21:10;;;;;;;;;;;13.50;82.80;;;;;;5000930;28;19933;-73
2022/09/24 03:23:37;;;;;;;;;;;13.50;82.90;;;;;;5000151;28;19930;-73
2022/09/24 03:26:04;;;;;;;;;;;13.40;83.00;;;;;;4991726;28;19936;-73
2022/09/24 03:28:30;;;;;;;;;;;13.50;83.20;;;;;;4994739;28;19925;-72
2022/09/24 03:31:00;;;;;;;;;;;13.40;83.20;;;;;;5000406;28;19936;-73
2022/09/24 03:33:27;;;;;;;;;;;13.40;83.10;;;;;;5008838;28;19925;-73
2022/09/24 03:35:58;;;;;;;;;;;13.40;83.20;;;;;;5003492;28;19929;-74
2022/09/24 03:38:24;;;;;;;;;;;13.40;83.20;;;;;;4994121;28;20287;-73
2022/09/24 03:40:51;;;;;;;;;;;13.40;83.20;;;;;;4995792;28;19933;-73
2022/09/24 03:43:18;;;;;;;;;;;13.40;83.30;;;;;;5006616;28;19937;-73
2022/09/24 03:45:44;;;;;;;;;;;13.40;83.30;;;;;;5008041;28;20352;-73
2022/09/24 03:48:12;;;;;;;;;;;13.40;83.40;;;;;;5004723;28;19929;-73
2022/09/24 03:50:39;;;;;;;;;;;13.40;83.40;;;;;;4994957;28;19930;-73
2022/09/24 03:53:05;;;;;;;;;;;13.40;83.40;;;;;;5003748;28;19941;-73
2022/09/24 03:55:32;;;;;;;;;;;13.30;83.30;;;;;;5000672;28;20417;-72
2022/09/24 03:57:58;;;;;;;;;;;13.30;83.40;;;;;;4998201;28;19933;-72
2022/09/24 04:00:26;;;;;;;;;;;13.30;83.40;;;;;;5002874;28;20409;-72
2022/09/24 04:02:52;;;;;;;;;;;13.40;83.50;;;;;;5004949;28;19929;-73
2022/09/24 04:05:20;;;;;;;;;;;13.30;83.40;;;;;;5006129;28;19933;-73
2022/09/24 04:07:47;;;;;;;;;;;13.30;83.50;;;;;;4990177;28;19972;-73
2022/09/24 04:10:13;;;;;;;;;;;13.30;83.60;;;;;;5002968;28;19929;-73
2022/09/24 04:12:42;;;;;;;;;;;13.30;83.80;;;;;;4993452;28;20460;-73
2022/09/24 04:15:09;;;;;;;;;;;13.30;83.80;;;;;;5000907;28;19929;-72
2022/09/24 04:17:35;;;;;;;;;;;13.20;83.80;;;;;;5003054;28;19939;-72
2022/09/24 04:20:02;;;;;;;;;;;13.20;83.80;;;;;;5005035;28;19933;-73
2022/09/24 04:22:30;;;;;;;;;;;13.20;83.80;;;;;;4992136;28;19937;-73
2022/09/24 04:24:57;;;;;;;;;;;13.20;83.90;;;;;;5003808;28;19929;-73
2022/09/24 04:27:23;;;;;;;;;;;13.20;83.90;;;;;;4994931;28;20389;-73
2022/09/24 04:29:50;;;;;;;;;;;13.20;84.00;;;;;;5004224;28;19952;-73
2022/09/24 04:32:16;;;;;;;;;;;13.20;84.10;;;;;;5007396;28;20396;-73
2022/09/24 04:34:43;;;;;;;;;;;13.10;84.10;;;;;;4999229;28;19926;-73
2022/09/24 04:37:09;;;;;;;;;;;13.10;84.00;;;;;;5006503;28;19930;-73
2022/09/24 04:39:37;;;;;;;;;;;13.10;84.10;;;;;;5006613;28;20048;-73
2022/09/24 04:42:04;;;;;;;;;;;13.10;84.20;;;;;;5000764;28;20052;-73
2022/09/24 04:44:30;;;;;;;;;;;13.10;84.10;;;;;;5007325;28;19945;-73
2022/09/24 04:47:01;;;;;;;;;;;13.10;84.20;;;;;;4999445;28;19964;-73
2022/09/24 04:49:28;;;;;;;;;;;13.10;84.20;;;;;;4995789;28;19933;-73
2022/09/24 04:51:57;;;;;;;;;;;13.10;84.30;;;;;;5005311;28;19929;-73
2022/09/24 04:54:23;;;;;;;;;;;13.10;84.30;;;;;;5006432;28;19929;-74
2022/09/24 04:56:51;;;;;;;;;;;13.00;84.30;;;;;;4997350;28;19934;-73
2022/09/24 04:59:18;;;;;;;;;;;13.00;84.30;;;;;;4998767;28;19933;-74
2022/09/24 05:01:46;;;;;;;;;;;13.00;84.30;;;;;;4998574;28;20409;-74
2022/09/24 05:04:12;;;;;;;;;;;13.00;84.30;;;;;;5002083;28;19929;-73
2022/09/24 05:06:39;;;;;;;;;;;13.00;84.40;;;;;;4994954;28;19933;-74
2022/09/24 05:09:05;;;;;;;;;;;13.00;84.40;;;;;;5001099;28;20029;-73
2022/09/24 05:11:32;;;;;;;;;;;13.00;84.50;;;;;;5004034;28;19938;-73
2022/09/24 05:14:00;;;;;;;;;;;13.00;84.50;;;;;;4995861;28;19983;-73
2022/09/24 05:16:26;;;;;;;;;;;12.90;84.50;;;;;;5003959;28;19984;-74
2022/09/24 05:18:54;;;;;;;;;;;12.90;84.50;;;;;;5006769;28;20616;-74
2022/09/24 05:21:21;;;;;;;;;;;12.90;84.60;;;;;;5003025;28;19930;-74
2022/09/24 05:23:47;;;;;;;;;;;12.90;84.70;;;;;;5005733;28;19964;-73
2022/09/24 05:28:58;;;;;;;;;;;12.90;84.60;;;;;;4995019;28;19937;-73
2022/09/24 05:31:25;;;;;;;;;;;12.90;84.70;;;;;;5002847;28;19971;-71
2022/09/24 05:33:53;;;;;;;;;;;12.90;84.70;;;;;;5006497;28;19929;-74
2022/09/24 05:36:19;;;;;;;;;;;12.90;84.80;;;;;;5007625;28;19948;-74
2022/09/24 05:38:46;;;;;;;;;;;12.90;84.90;;;;;;5001945;28;19936;-73
2022/09/24 05:41:12;;;;;;;;;;;12.80;84.90;;;;;;4998180;28;19945;-72
2022/09/24 05:43:39;;;;;;;;;;;12.90;85.00;;;;;;5005026;28;19929;-73
2022/09/24 05:46:06;;;;;;;;;;;12.80;85.00;;;;;;5004859;28;19952;-73
2022/09/24 05:48:34;;;;;;;;;;;12.90;85.00;;;;;;5005791;28;19929;-73
2022/09/24 05:51:01;;;;;;;;;;;12.80;85.10;;;;;;5005118;28;19926;-73
2022/09/24 05:53:27;;;;;;;;;;;12.80;85.10;;;;;;5006856;28;19933;-73
2022/09/24 05:55:54;;;;;;;;;;;12.80;85.20;;;;;;5001574;28;19933;-74
2022/09/24 05:58:20;;;;;;;;;;;12.80;85.10;;;;;;5000417;28;20758;-73
2022/09/24 06:00:47;;;;;;;;;;;12.80;85.20;;;;;;5004243;28;20440;-73
2022/09/24 06:03:14;;;;;;;;;;;12.80;85.20;;;;;;5006322;28;19964;-73
2022/09/24 06:05:46;;;;;;;;;;;12.80;85.30;;;;;;5006555;28;19929;-73
2022/09/24 06:08:14;;;;;;;;;;;12.80;85.30;;;;;;4996647;28;19957;-76
2022/09/24 06:10:40;;;;;;;;;;;12.80;86.00;;;;;;5008915;28;19933;-74
2022/09/24 06:13:07;;;;;;;;;;;12.80;86.40;;;;;;5004314;28;19926;-76
2022/09/24 06:15:34;;;;;;;;;;;12.80;86.40;;;;;;5006812;28;19984;-75
2022/09/24 06:18:01;;;;;;;;;;;12.70;86.40;;;;;;5004942;28;20447;-75
2022/09/24 06:20:28;;;;;;;;;;;12.80;86.50;;;;;;5007525;28;19936;-75
2022/09/24 06:22:57;;;;;;;;;;;12.80;86.50;;;;;;5013613;28;19932;-74
2022/09/24 06:25:23;;;;;;;;;;;12.70;86.40;;;;;;5009152;28;20586;-73
2022/09/24 06:27:53;;;;;;;;;;;12.70;87.00;;;;;;5002286;28;19964;-74
2022/09/24 06:30:20;;;;;;;;;;;12.70;87.60;;;;;;5002656;28;19960;-73
2022/09/24 06:32:46;;;;;;;;;;;12.70;88.30;;;;;;5005604;28;19929;-73
2022/09/24 06:35:13;;;;;;;;;;;12.80;88.70;;;;;;5007214;28;19933;-72
2022/09/24 06:37:40;;;;;;;;;;;12.80;88.70;;;;;;5011122;28;19937;-74
2022/09/24 06:40:09;;;;;;;;;;;12.80;88.70;;;;;;5007485;28;20278;-73
2022/09/24 06:42:37;;;;;;;;;;;12.80;88.50;;;;;;5006349;28;19980;-73
2022/09/24 06:45:03;;;;;;;;;;;12.80;88.30;;;;;;5005610;28;19933;-72
2022/09/24 06:47:30;;;;;;;;;;;12.90;88.20;;;;;;5004305;28;19929;-73
2022/09/24 06:49:56;;;;;;;;;;;12.90;88.20;;;;;;5002440;28;19929;-72
2022/09/24 06:52:23;;;;;;;;;;;12.90;88.00;;;;;;5000213;28;20393;-71
2022/09/24 06:54:49;;;;;;;;;;;12.90;87.90;;;;;;5004300;28;19929;-72
2022/09/24 06:57:17;;;;;;;;;;;12.90;87.70;;;;;;5002756;28;19930;-72
2022/09/24 06:59:44;;;;;;;;;;;13.00;87.70;;;;;;5000679;28;19948;-73
2022/09/24 07:02:11;;;;;;;;;;;12.90;87.50;;;;;;5004665;28;19979;-73
2022/09/24 07:04:37;;;;;;;;;;;13.00;87.50;;;;;;5005076;28;20036;-73
2022/09/24 07:09:48;;;;;;;;;;;13.00;87.40;;;;;;5004029;28;19979;-73
2022/09/24 07:12:15;;;;;;;;;;;13.00;87.30;;;;;;5001031;28;19929;-73
2022/09/24 07:14:43;;;;;;;;;;;13.00;87.20;;;;;;5001999;28;19930;-72
2022/09/24 07:17:09;;;;;;;;;;;13.00;87.20;;;;;;4999246;28;19936;-73
2022/09/24 07:19:37;;;;;;;;;;;13.00;87.10;;;;;;5003874;28;19933;-73
2022/09/24 07:22:03;;;;;;;;;;;13.10;87.10;;;;;;4999863;28;19993;-72
2022/09/24 07:24:30;;;;;;;;;;;13.00;87.00;;;;;;4996995;28;19934;-72
2022/09/24 07:26:56;;;;;;;;;;;13.10;87.00;;;;;;4998549;28;19934;-72
2022/09/24 07:29:23;;;;;;;;;;;13.10;87.00;;;;;;5003527;28;19929;-72
2022/09/24 07:31:51;;;;;;;;;;;13.10;86.90;;;;;;5003046;28;19933;-72
2022/09/24 07:34:17;;;;;;;;;;;13.10;86.90;;;;;;4994851;28;19929;-72
2022/09/24 07:36:44;;;;;;;;;;;13.10;86.90;;;;;;5002304;28;19933;-72
2022/09/24 07:39:11;;;;;;;;;;;13.10;86.90;;;;;;5001068;28;19999;-73
2022/09/24 07:41:39;;;;;;;;;;;13.20;86.90;;;;;;5001182;28;20640;-73
2022/09/24 07:44:06;;;;;;;;;;;13.20;86.90;;;;;;5002492;28;19968;-73
2022/09/24 07:46:33;;;;;;;;;;;13.20;86.80;;;;;;5005738;28;19929;-73
2022/09/24 07:49:01;;;;;;;;;;;13.10;86.70;;;;;;5005169;28;19929;-71
2022/09/24 07:51:28;;;;;;;;;;;13.20;86.80;;;;;;4998958;28;19957;-73
2022/09/24 07:53:55;;;;;;;;;;;13.20;86.80;;;;;;5004340;28;19984;-72
2022/09/24 07:56:22;;;;;;;;;;;13.30;86.70;;;;;;5002978;28;19926;-73
2022/09/24 07:58:49;;;;;;;;;;;13.30;87.00;;;;;;5000550;28;20328;-74
2022/09/24 08:01:16;;;;;;;;;;;13.40;89.50;;;;;;5005083;28;20612;-73
2022/09/24 08:03:43;;;;;;;;;;;13.60;90.30;;;;;;5005682;28;19972;-74
2022/09/24 08:06:10;;;;;;;;;;;13.80;90.00;;;;;;5006765;28;19930;-74
2022/09/24 08:08:38;;;;;;;;;;;13.90;89.30;;;;;;5008209;28;20249;-74
2022/09/24 08:11:05;;;;;;;;;;;14.00;89.40;;;;;;5004809;28;20018;-75
2022/09/24 08:13:32;;;;;;;;;;;14.00;89.20;;;;;;5007413;28;19934;-74
2022/09/24 08:15:59;;;;;;;;;;;14.10;88.70;;;;;;5004311;28;20003;-74
2022/09/24 08:18:26;;;;;;;;;;;14.10;88.10;;;;;;5006884;28;19947;-74
2022/09/24 08:20:52;;;;;;;;;;;14.10;88.10;;;;;;5007932;28;20404;-74
2022/09/24 08:23:20;;;;;;;;;;;14.10;88.00;;;;;;5005697;28;19929;-75
2022/09/24 08:25:47;;;;;;;;;;;14.10;87.90;;;;;;5004928;28;19929;-73
2022/09/24 08:28:15;;;;;;;;;;;14.20;88.30;;;;;;5006971;28;19929;-75
2022/09/24 08:30:42;;;;;;;;;;;14.20;88.30;;;;;;5006128;28;19933;-75
2022/09/24 08:33:09;;;;;;;;;;;14.30;88.30;;;;;;5013401;28;19945;-75
2022/09/24 08:35:38;;;;;;;;;;;14.30;87.90;;;;;;5003429;28;19933;-75
2022/09/24 08:38:05;;;;;;;;;;;14.40;87.70;;;;;;5003301;28;19933;-74
2022/09/24 08:40:36;;;;;;;;;;;14.50;87.60;;;;;;5010115;28;19992;-75
2022/09/24 08:43:09;;;;;;;;;;;14.50;87.20;;;;;;4997795;28;20735;-74
2022/09/24 08:48:25;;;;;;;;;;;14.70;86.40;;;;;;5007986;28;20023;-74
2022/09/24 08:50:58;;;;;;;;;;;14.80;86.30;;;;;;4998131;28;19929;-74
2022/09/24 08:53:30;;;;;;;;;;;15.10;85.40;;;;;;5003378;28;19960;-74
2022/09/24 08:55:58;;;;;;;;;;;15.30;84.00;;;;;;4998459;28;19973;-74
2022/09/24 08:58:29;;;;;;;;;;;15.30;83.90;;;;;;4996491;28;19940;-75
2022/09/24 09:00:58;;;;;;;;;;;15.40;83.50;;;;;;4998669;28;19934;-73
2022/09/24 09:03:30;;;;;;;;;;;15.40;84.10;;;;;;5002726;28;20580;-72
2022/09/24 09:05:59;;;;;;;;;;;15.40;84.80;;;;;;4997320;28;19929;-72
2022/09/24 09:08:32;;;;;;;;;;;15.50;84.60;;;;;;5003849;28;20340;-71
2022/09/24 09:11:02;;;;;;;;;;;15.50;84.00;;;;;;4999774;28;19937;-72
2022/09/24 09:13:32;;;;;;;;;;;15.50;83.50;;;;;;4996123;28;20044;-72
2022/09/24 09:16:02;;;;;;;;;;;15.60;82.90;;;;;;5001050;28;19959;-72
2022/09/24 09:18:31;;;;;;;;;;;15.60;83.30;;;;;;5004624;28;19929;-73
2022/09/24 09:21:04;;;;;;;;;;;15.60;83.90;;;;;;5004410;28;19937;-72
2022/09/24 09:23:34;;;;;;;;;;;15.50;84.20;;;;;;5004770;28;19948;-71
2022/09/24 09:26:05;;;;;;;;;;;15.50;84.10;;;;;;5001185;28;19929;-71
2022/09/24 09:28:33;;;;;;;;;;;15.30;84.30;;;;;;5002765;28;19929;-71
2022/09/24 09:31:05;;;;;;;;;;;15.20;84.80;;;;;;5001612;28;19929;-72
2022/09/24 09:33:41;;;;;;;;;;;15.00;85.30;;;;;;5005658;28;19930;-72
2022/09/24 09:36:15;;;;;;;;;;;14.90;85.60;;;;;;5001953;28;19941;-71
2022/09/24 09:38:46;;;;;;;;;;;14.80;85.90;;;;;;5002162;28;19930;-72
2022/09/24 09:41:19;;;;;;;;;;;14.70;86.20;;;;;;4997951;28;20020;-72
2022/09/24 09:43:46;;;;;;;;;;;14.60;86.30;;;;;;5002659;28;19993;-72
2022/09/24 09:46:14;;;;;;;;;;;14.60;86.40;;;;;;4999853;28;19926;-71
2022/09/24 09:48:43;;;;;;;;;;;14.60;86.60;;;;;;4997455;28;20024;-72
2022/09/24 09:51:15;;;;;;;;;;;14.60;87.00;;;;;;5004957;28;20004;-73
2022/09/24 09:53:53;;;;;;;;;;;14.70;87.00;;;;;;5007669;28;19926;-73
2022/09/24 09:56:22;;;;;;;;;;;14.80;86.70;;;;;;5003919;28;19930;-71
2022/09/24 09:58:54;;;;;;;;;;;14.80;86.60;;;;;;5009329;28;19934;-71
2022/09/24 10:01:30;;;;;;;;;;;14.70;86.50;;;;;;5004542;28;20033;-73
2022/09/24 10:04:01;;;;;;;;;;;14.70;86.50;;;;;;4997645;28;19929;-72
2022/09/24 10:06:30;;;;;;;;;;;14.70;86.60;;;;;;5002504;28;19936;-73
2022/09/24 10:09:06;;;;;;;;;;;14.70;86.70;;;;;;5003781;28;20016;-72
2022/09/24 10:11:34;;;;;;;;;;;14.60;86.70;;;;;;5000983;28;19929;-72
2022/09/24 10:14:01;;;;;;;;;;;14.70;86.80;;;;;;5001815;28;19934;-72
2022/09/24 10:16:28;;;;;;;;;;;14.60;86.80;;;;;;5002827;28;20310;-72
2022/09/24 10:18:54;;;;;;;;;;;14.60;86.80;;;;;;5006056;28;19929;-73
2022/09/24 10:21:26;;;;;;;;;;;14.60;86.90;;;;;;4998554;28;19940;-72
2022/09/24 10:23:58;;;;;;;;;;;14.60;86.90;;;;;;5003641;28;19992;-72
2022/09/24 10:26:33;;;;;;;;;;;14.60;87.00;;;;;;5003335;28;19930;-72
2022/09/24 10:31:44;;;;;;;;;;;14.60;86.90;;;;;;4980726;28;19940;-73
2022/09/24 10:34:18;;;;;;;;;;;14.70;86.80;;;;;;5005511;28;19937;-72
2022/09/24 10:36:50;;;;;;;;;;;14.70;86.70;;;;;;5000996;28;19982;-72
2022/09/24 10:39:17;;;;;;;;;;;14.70;86.70;;;;;;5002032;28;19933;-72
2022/09/24 10:41:46;;;;;;;;;;;14.70;86.70;;;;;;5002073;28;20381;-72
2022/09/24 10:44:15;;;;;;;;;;;14.70;86.70;;;;;;5010885;28;19940;-73
2022/09/24 10:47:08;;;;;;;;;;;14.70;86.80;;;;;;5003902;28;20390;-73
2022/09/24 10:49:41;;;;;;;;;;;14.70;86.80;;;;;;4969517;28;19937;-72
2022/09/24 10:52:12;;;;;;;;;;;14.80;86.90;;;;;;5002347;28;20653;-73
2022/09/24 10:54:46;;;;;;;;;;;14.80;87.00;;;;;;4998258;28;19929;-73
2022/09/24 10:57:21;;;;;;;;;;;14.80;87.00;;;;;;5000892;28;19929;-73
2022/09/24 10:59:53;;;;;;;;;;;14.80;86.90;;;;;;5008454;28;19960;-73
2022/09/24 11:02:27;;;;;;;;;;;14.80;86.80;;;;;;5008433;28;20231;-73
2022/09/24 11:04:55;;;;;;;;;;;14.80;86.80;;;;;;4999561;28;19941;-74
2022/09/24 11:07:37;;;;;;;;;;;14.80;86.70;;;;;;5001753;28;19933;-72
2022/09/24 11:10:10;;;;;;;;;;;14.80;86.60;;;;;;4996321;28;19930;-73
2022/09/24 11:12:39;;;;;;;;;;;14.90;86.70;;;;;;4993590;28;20421;-73
2022/09/24 11:15:21;;;;;;;;;;;14.90;86.70;;;;;;5004057;28;19936;-74
2022/09/24 11:17:55;;;;;;;;;;;14.90;86.70;;;;;;5004170;28;19929;-73
2022/09/24 11:20:29;;;;;;;;;;;14.90;86.60;;;;;;4997014;28;19991;-73
2022/09/24 11:23:07;;;;;;;;;;;14.90;86.70;;;;;;5003619;28;19933;-72
2022/09/24 11:25:37;;;;;;;;;;;15.00;86.70;;;;;;4995632;28;20024;-73
2022/09/24 11:28:10;;;;;;;;;;;15.00;86.60;;;;;;5004274;28;19929;-73
2022/09/24 11:30:46;;;;;;;;;;;15.00;86.50;;;;;;4999242;28;20445;-73
2022/09/24 11:33:20;;;;;;;;;;;15.00;86.40;;;;;;5003622;28;20581;-73
2022/09/24 11:35:58;;;;;;;;;;;15.10;86.40;;;;;;5006398;28;19983;-72
2022/09/24 11:38:30;;;;;;;;;;;15.10;86.40;;;;;;4994050;28;19930;-72
2022/09/24 11:41:09;;;;;;;;;;;15.20;86.40;;;;;;4997231;28;19937;-72
2022/09/24 11:43:49;;;;;;;;;;;15.20;87.20;;;;;;5007516;28;19937;-72
2022/09/24 11:46:35;;;;;;;;;;;15.20;86.50;;;;;;5010986;28;19933;-73
2022/09/24 11:49:08;;;;;;;;;;;15.20;86.50;;;;;;5006840;28;19929;-73
2022/09/24 11:51:39;;;;;;;;;;;15.20;86.60;;;;;;4993581;28;19929;-72
2022/09/24 11:54:08;;;;;;;;;;;15.30;86.70;;;;;;5008565;28;20373;-73
2022/09/24 11:56:36;;;;;;;;;;;15.30;86.50;;;;;;5006293;28;19936;-73
2022/09/24 11:59:10;;;;;;;;;;;15.30;86.40;;;;;;5004331;28;19940;-73
2022/09/24 12:01:40;;;;;;;;;;;15.40;86.30;;;;;;5010863;28;19929;-73
2022/09/24 12:04:10;;;;;;;;;;;15.40;86.10;;;;;;5002594;28;20036;-73
2022/09/24 12:06:41;;;;;;;;;;;15.50;86.10;;;;;;5006599;28;19926;-73
2022/09/24 12:09:14;;;;;;;;;;;15.50;85.90;;;;;;5011192;28;20023;-73
2022/09/24 12:11:42;;;;;;;;;;;15.60;85.90;;;;;;5006117;28;19929;-73
2022/09/24 12:14:13;;;;;;;;;;;15.50;85.80;;;;;;5002279;28;19933;-73
2022/09/24 12:16:43;;;;;;;;;;;15.60;86.60;;;;;;5010162;28;19929;-73
2022/09/24 12:19:14;;;;;;;;;;;15.60;85.60;;;;;;5005909;28;19926;-73
2022/09/24 12:21:42;;;;;;;;;;;15.70;85.60;;;;;;5001978;28;19976;-73
2022/09/24 12:24:12;;;;;;;;;;;15.70;85.40;;;;;;5005705;28;20044;-73
2022/09/24 12:26:40;;;;;;;;;;;15.70;85.70;;;;;;5004132;28;20424;-73
2022/09/24 12:34:54;;;;;;;;;;;15.80;85.20;;;;;;5002979;28;20106;-73
2022/09/24 12:37:25;;;;;;;;;;;15.90;85.20;;;;;;5005332;28;20024;-73
2022/09/24 12:39:55;;;;;;;;;;;15.90;85.10;;;;;;5007193;28;19979;-72
2022/09/24 12:42:24;;;;;;;;;;;16.00;85.00;;;;;;5000018;28;19936;-72
2022/09/24 12:44:53;;;;;;;;;;;16.00;85.20;;;;;;5000091;28;20392;-74
2022/09/24 12:47:22;;;;;;;;;;;16.00;85.30;;;;;;5005705;28;19949;-73
2022/09/24 12:49:51;;;;;;;;;;;16.10;85.20;;;;;;5007071;28;19926;-73
2022/09/24 12:52:19;;;;;;;;;;;16.10;85.70;;;;;;5009480;28;20024;-73
2022/09/24 12:54:45;;;;;;;;;;;16.10;84.80;;;;;;5007947;28;19934;-74
2022/09/24 12:57:13;;;;;;;;;;;16.20;84.70;;;;;;5007361;28;19972;-74
2022/09/24 12:59:47;;;;;;;;;;;16.20;84.60;;;;;;5000948;28;19929;-73
2022/09/24 13:02:15;;;;;;;;;;;16.20;84.40;;;;;;5015646;28;19933;-73
2022/09/24 13:04:49;;;;;;;;;;;16.30;84.40;;;;;;5005601;28;19933;-74
2022/09/24 13:07:32;;;;;;;;;;;16.30;84.10;;;;;;5008445;28;20444;-74
2022/09/24 13:10:11;;;;;;;;;;;16.40;84.00;;;;;;5005121;28;19997;-73
2022/09/24 13:12:37;;;;;;;;;;;16.30;84.60;;;;;;5009776;28;19929;-73
2022/09/24 13:15:06;;;;;;;;;;;16.40;83.80;;;;;;5003633;28;20484;-74
2022/09/24 13:17:34;;;;;;;;;;;16.40;83.80;;;;;;5005418;28;20004;-72
2022/09/24 13:20:05;;;;;;;;;;;16.50;83.80;;;;;;5006538;28;19936;-73
2022/09/24 13:22:32;;;;;;;;;;;16.50;83.80;;;;;;4998705;28;19936;-74
2022/09/24 13:25:09;;;;;;;;;;;16.50;83.70;;;;;;5002337;28;19933;-74
2022/09/24 13:27:37;;;;;;;;;;;16.50;83.70;;;;;;5002713;28;19945;-73
2022/09/24 13:30:06;;;;;;;;;;;16.50;83.70;;;;;;5003540;28;19941;-74
2022/09/24 13:32:36;;;;;;;;;;;16.50;83.70;;;;;;5010544;28;20024;-74
2022/09/24 13:35:06;;;;;;;;;;;16.50;83.70;;;;;;4999273;28;20518;-75
2022/09/24 13:37:34;;;;;;;;;;;16.50;83.80;;;;;;5007834;28;19929;-75
2022/09/24 13:40:03;;;;;;;;;;;16.50;83.80;;;;;;4999867;28;19929;-76
2022/09/24 13:42:32;;;;;;;;;;;16.60;83.80;;;;;;5004301;28;19940;-74
2022/09/24 13:45:00;;;;;;;;;;;16.60;83.80;;;;;;5008384;28;19937;-73
2022/09/24 13:47:29;;;;;;;;;;;16.60;83.80;;;;;;5006703;28;19929;-73
2022/09/24 13:50:02;;;;;;;;;;;16.60;83.70;;;;;;5004328;28;19937;-74
2022/09/24 13:52:32;;;;;;;;;;;16.60;83.60;;;;;;5010042;28;19933;-74
2022/09/24 13:55:02;;;;;;;;;;;16.70;83.60;;;;;;5007884;28;20629;-75
2022/09/24 13:57:29;;;;;;;;;;;16.70;83.50;;;;;;5001895;28;19942;-73
2022/09/24 14:00:14;;;;;;;;;;;16.70;83.40;;;;;;5005678;28;19929;-74
2022/09/24 14:02:44;;;;;;;;;;;16.80;83.40;;;;;;5003734;28;25652;-74
2022/09/24 14:05:16;;;;;;;;;;;16.80;83.40;;;;;;5001840;28;19932;-73
2022/09/24 14:07:51;;;;;;;;;;;16.80;83.20;;;;;;5003259;28;19985;-71
2022/09/24 14:10:19;;;;;;;;;;;16.80;83.40;;;;;;5006930;28;19936;-74
2022/09/24 14:12:45;;;;;;;;;;;16.90;83.70;;;;;;5001749;28;20310;-73
2022/09/24 14:15:14;;;;;;;;;;;16.90;82.90;;;;;;5003436;28;20012;-75
2022/09/24 14:17:41;;;;;;;;;;;16.90;82.80;;;;;;5005842;28;19959;-74
2022/09/24 14:20:13;;;;;;;;;;;17.00;82.70;;;;;;5001106;28;19933;-74
2022/09/24 14:22:40;;;;;;;;;;;17.00;82.50;;;;;;5002471;28;20510;-74
2022/09/24 14:25:09;;;;;;;;;;;17.10;82.50;;;;;;5004207;28;19929;-74
2022/09/24 14:27:38;;;;;;;;;;;17.10;82.30;;;;;;5003189;28;19940;-74
2022/09/24 14:30:06;;;;;;;;;;;17.10;83.00;;;;;;5010515;28;20336;-74
2022/09/24 14:32:34;;;;;;;;;;;17.10;82.20;;;;;;5010147;28;20401;-73
2022/09/24 14:35:03;;;;;;;;;;;17.10;82.20;;;;;;5006020;28;19933;-73
2022/09/24 14:37:31;;;;;;;;;;;17.10;82.10;;;;;;5004028;28;19934;-74
2022/09/24 14:40:00;;;;;;;;;;;17.20;82.20;;;;;;5005660;28;19944;-74
2022/09/24 14:42:30;;;;;;;;;;;17.20;82.10;;;;;;5005765;28;19933;-72
2022/09/24 14:44:56;;;;;;;;;;;17.10;82.00;;;;;;5007634;28;19940;-74